Time;durP1;ratioP1;P1;durP2;ratioP2;P2;SDS_P1;SDS_P2;PMS_P1;PMS_P2;Temp;Humidity;BMP_temperature;BMP_pressure;BME280_temperature;BME280_humidity;BME280_pressure;Samples;Min_cycle;Max_cycle;Signal;HPM_P1;HPM_P2
2024/03/31 00:00:19;;;;;;;39.78;23.98;;;11.00;99.90;;;;;;6306289;22;20575;-71
2024/03/31 00:02:46;;;;;;;39.38;23.17;;;11.00;99.90;;;;;;6305711;22;20187;-71
2024/03/31 00:05:12;;;;;;;43.30;23.77;;;11.00;99.90;;;;;;6305959;22;20702;-72
2024/03/31 00:07:38;;;;;;;35.70;27.00;;;10.90;99.90;;;;;;6307664;22;20422;-71
2024/03/31 00:10:05;;;;;;;36.53;23.83;;;10.90;99.90;;;;;;6308323;22;20182;-71
2024/03/31 00:12:31;;;;;;;47.33;25.17;;;10.90;99.90;;;;;;6309391;22;20566;-71
2024/03/31 00:14:57;;;;;;;52.95;32.70;;;10.90;99.90;;;;;;6307646;22;20215;-72
2024/03/31 00:17:25;;;;;;;41.83;28.23;;;10.90;99.90;;;;;;6308594;22;20503;-72
2024/03/31 00:19:52;;;;;;;40.97;28.00;;;10.90;99.90;;;;;;6309921;22;20418;-71
2024/03/31 00:22:18;;;;;;;61.65;35.22;;;10.90;99.90;;;;;;6311007;22;20207;-71
2024/03/31 00:24:44;;;;;;;61.58;35.30;;;10.90;99.90;;;;;;6312187;22;20196;-71
2024/03/31 00:27:12;;;;;;;64.77;36.43;;;11.00;99.90;;;;;;6312177;22;20175;-72
2024/03/31 00:29:38;;;;;;;60.10;34.60;;;11.00;99.90;;;;;;6311934;22;20194;-72
2024/03/31 00:32:06;;;;;;;65.80;33.13;;;11.10;99.90;;;;;;6310051;22;20211;-72
2024/03/31 00:34:33;;;;;;;56.97;36.08;;;11.20;99.90;;;;;;6309184;22;20533;-72
2024/03/31 00:36:59;;;;;;;45.40;31.63;;;11.20;99.90;;;;;;6312675;22;20229;-72
2024/03/31 00:39:25;;;;;;;50.45;31.85;;;11.20;99.90;;;;;;6311955;22;20180;-72
2024/03/31 00:41:52;;;;;;;46.80;30.57;;;11.30;99.90;;;;;;6315760;22;20620;-72
2024/03/31 00:44:18;;;;;;;48.80;29.33;;;11.40;99.90;;;;;;6313568;22;20200;-72
2024/03/31 00:46:44;;;;;;;40.73;28.20;;;11.40;99.90;;;;;;6314571;22;20239;-72
2024/03/31 00:49:10;;;;;;;51.47;30.00;;;11.40;99.90;;;;;;6314371;22;20183;-71
2024/03/31 00:51:38;;;;;;;46.60;26.93;;;11.40;99.90;;;;;;6314037;22;20739;-72
2024/03/31 00:54:04;;;;;;;42.20;25.95;;;11.40;99.90;;;;;;6317018;22;20204;-72
2024/03/31 00:56:31;;;;;;;42.10;25.40;;;11.40;99.90;;;;;;6315960;22;20202;-72
2024/03/31 00:58:56;;;;;;;44.10;27.00;;;11.50;99.90;;;;;;6315226;22;20187;-72
2024/03/31 01:01:24;;;;;;;43.93;27.57;;;11.50;99.90;;;;;;6316388;22;20199;-72
2024/03/31 01:03:50;;;;;;;36.30;25.23;;;11.50;99.90;;;;;;6315911;22;20430;-72
2024/03/31 01:06:19;;;;;;;45.40;26.17;;;11.50;99.90;;;;;;6315123;22;20475;-72
2024/03/31 01:08:47;;;;;;;34.00;22.60;;;11.50;99.90;;;;;;6314963;22;20190;-71
2024/03/31 01:11:14;;;;;;;43.08;24.92;;;11.50;99.90;;;;;;6315844;22;20422;-71
2024/03/31 01:13:41;;;;;;;40.60;25.93;;;11.50;99.90;;;;;;6316030;22;20222;-72
2024/03/31 01:16:08;;;;;;;35.70;24.25;;;11.50;99.90;;;;;;6314504;22;20422;-72
2024/03/31 01:18:34;;;;;;;32.10;22.92;;;11.50;99.90;;;;;;6317339;22;20176;-72
2024/03/31 01:21:01;;;;;;;31.27;24.93;;;11.50;99.90;;;;;;6317115;22;20724;-72
2024/03/31 01:23:31;;;;;;;37.90;27.00;;;11.50;99.90;;;;;;6316500;22;20754;-71
2024/03/31 01:26:01;;;;;;;40.40;25.67;;;11.50;99.90;;;;;;6315991;22;20506;-72
2024/03/31 01:28:28;;;;;;;45.88;28.50;;;11.40;99.90;;;;;;6317230;22;20414;-72
2024/03/31 01:30:55;;;;;;;40.03;27.23;;;11.40;99.90;;;;;;6316402;22;20180;-72
2024/03/31 01:33:21;;;;;;;40.03;27.38;;;11.40;99.90;;;;;;6316784;22;20199;-72
2024/03/31 01:35:47;;;;;;;48.87;29.37;;;11.40;99.90;;;;;;6317483;22;20291;-72
2024/03/31 01:38:13;;;;;;;49.63;28.52;;;11.30;99.90;;;;;;6316965;22;20210;-72
2024/03/31 01:40:40;;;;;;;41.03;29.90;;;11.30;99.90;;;;;;6317042;22;20175;-72
2024/03/31 01:43:07;;;;;;;39.65;29.45;;;11.30;99.90;;;;;;6317451;22;20172;-73
2024/03/31 01:45:34;;;;;;;47.47;29.70;;;11.30;99.90;;;;;;6315896;22;20633;-72
2024/03/31 01:48:00;;;;;;;43.35;31.73;;;11.20;99.90;;;;;;6315041;22;20176;-72
2024/03/31 01:50:26;;;;;;;42.33;29.57;;;11.20;99.90;;;;;;6310847;22;20222;-71
2024/03/31 01:52:52;;;;;;;57.70;30.77;;;11.20;99.90;;;;;;6313941;22;20210;-71
2024/03/31 01:55:19;;;;;;;52.67;32.27;;;11.10;99.90;;;;;;6313894;22;20525;-71
2024/03/31 01:57:45;;;;;;;42.80;29.60;;;11.10;99.90;;;;;;6310397;22;20184;-71
2024/03/31 02:00:14;;;;;;;45.53;30.40;;;11.10;99.90;;;;;;6307742;22;20518;-71
2024/03/31 02:02:40;;;;;;;54.05;31.75;;;11.00;99.90;;;;;;6314189;22;20433;-72
2024/03/31 02:05:06;;;;;;;53.83;32.27;;;11.00;99.90;;;;;;6311127;22;20274;-71
2024/03/31 02:07:32;;;;;;;49.40;32.63;;;11.00;99.90;;;;;;6313025;22;20172;-72
2024/03/31 02:09:59;;;;;;;41.10;31.20;;;11.00;99.90;;;;;;6317274;22;20176;-72
2024/03/31 02:12:25;;;;;;;38.22;29.85;;;10.90;99.90;;;;;;6316139;22;20187;-71
2024/03/31 02:14:51;;;;;;;42.93;28.73;;;10.90;99.90;;;;;;6314725;22;20282;-72
2024/03/31 02:17:18;;;;;;;43.70;30.13;;;10.90;99.90;;;;;;6310631;22;20183;-72
2024/03/31 02:19:45;;;;;;;48.58;30.95;;;10.90;99.90;;;;;;6311391;22;20231;-72
2024/03/31 02:22:11;;;;;;;41.75;30.23;;;10.90;99.90;;;;;;6315178;22;20259;-72
2024/03/31 02:24:37;;;;;;;41.57;31.90;;;10.80;99.90;;;;;;6314732;22;20192;-72
2024/03/31 02:27:03;;;;;;;49.58;33.83;;;10.80;99.90;;;;;;6315645;22;20182;-72
2024/03/31 02:29:30;;;;;;;44.15;31.67;;;10.80;99.90;;;;;;6316097;22;20229;-72
2024/03/31 02:31:56;;;;;;;41.08;30.95;;;10.70;99.90;;;;;;6313507;22;20191;-72
2024/03/31 02:34:24;;;;;;;48.00;30.20;;;10.60;99.90;;;;;;6314365;22;20199;-72
2024/03/31 02:36:50;;;;;;;49.13;31.50;;;10.60;99.90;;;;;;6313247;22;20262;-72
2024/03/31 02:39:16;;;;;;;53.50;30.67;;;10.50;99.90;;;;;;6313768;22;20182;-72
2024/03/31 02:41:42;;;;;;;41.17;28.15;;;10.50;99.90;;;;;;6312987;22;20186;-72
2024/03/31 02:44:09;;;;;;;46.30;31.67;;;10.50;99.90;;;;;;6313694;22;20219;-72
2024/03/31 02:46:35;;;;;;;40.03;29.00;;;10.50;99.90;;;;;;6312101;22;20184;-72
2024/03/31 02:49:01;;;;;;;55.37;32.27;;;10.40;99.90;;;;;;6313509;22;20281;-72
2024/03/31 02:51:28;;;;;;;43.88;28.50;;;10.40;99.90;;;;;;6312957;22;20184;-72
2024/03/31 02:53:55;;;;;;;39.28;27.48;;;10.40;99.90;;;;;;6310455;22;20540;-71
2024/03/31 02:56:21;;;;;;;36.00;28.00;;;10.30;99.90;;;;;;6309619;22;20183;-72
2024/03/31 02:58:48;;;;;;;33.07;27.17;;;10.30;99.90;;;;;;6311360;22;20231;-72
2024/03/31 03:01:13;;;;;;;39.72;30.48;;;10.30;99.90;;;;;;6307162;22;20510;-72
2024/03/31 03:03:40;;;;;;;46.27;28.60;;;10.30;99.90;;;;;;6318349;22;20187;-72
2024/03/31 03:06:06;;;;;;;39.60;28.73;;;10.20;99.90;;;;;;6305866;22;20180;-71
2024/03/31 03:08:34;;;;;;;50.80;28.80;;;10.20;99.90;;;;;;6304538;22;20178;-73
2024/03/31 03:10:59;;;;;;;39.55;28.52;;;10.20;99.90;;;;;;6305281;22;20199;-72
2024/03/31 03:13:28;;;;;;;43.50;28.73;;;10.20;99.90;;;;;;6305584;22;20192;-72
2024/03/31 03:15:53;;;;;;;47.25;27.83;;;10.20;99.90;;;;;;6304880;22;20196;-72
2024/03/31 03:18:21;;;;;;;40.97;28.80;;;10.10;99.90;;;;;;6305948;22;20178;-72
2024/03/31 03:20:46;;;;;;;39.67;27.80;;;10.10;99.90;;;;;;6304560;22;20180;-72
2024/03/31 03:23:13;;;;;;;35.20;27.00;;;10.10;99.90;;;;;;6304290;22;20182;-72
2024/03/31 03:25:40;;;;;;;33.58;25.55;;;10.00;99.90;;;;;;6304636;22;20198;-72
2024/03/31 03:28:07;;;;;;;38.67;25.85;;;10.00;99.90;;;;;;6305096;22;20176;-72
2024/03/31 03:30:37;;;;;;;31.00;23.10;;;10.00;99.90;;;;;;6305018;22;20175;-72
2024/03/31 03:33:04;;;;;;;37.88;25.80;;;10.00;99.90;;;;;;6304981;22;20571;-71
2024/03/31 03:35:30;;;;;;;31.80;23.40;;;10.00;99.90;;;;;;6304087;22;20731;-71
2024/03/31 03:37:57;;;;;;;27.38;22.23;;;9.90;99.90;;;;;;6303990;22;20175;-72
2024/03/31 03:40:24;;;;;;;25.75;19.23;;;9.90;99.90;;;;;;6306665;22;20191;-72
2024/03/31 03:42:52;;;;;;;32.50;22.17;;;9.90;99.90;;;;;;6306335;22;20183;-72
2024/03/31 03:45:18;;;;;;;27.65;21.30;;;9.90;99.90;;;;;;6305630;22;20204;-71
2024/03/31 03:47:44;;;;;;;33.73;21.00;;;9.80;99.90;;;;;;6306376;22;20172;-72
2024/03/31 03:50:10;;;;;;;28.58;19.88;;;9.80;99.90;;;;;;6306391;22;20414;-72
2024/03/31 03:52:37;;;;;;;26.43;19.20;;;9.80;99.90;;;;;;6306605;22;20194;-72
2024/03/31 03:55:04;;;;;;;26.73;18.58;;;9.80;99.90;;;;;;6306236;22;20203;-72
2024/03/31 03:57:31;;;;;;;28.02;22.77;;;9.80;99.90;;;;;;6307585;22;20180;-72
2024/03/31 03:59:58;;;;;;;25.65;19.13;;;9.80;99.90;;;;;;6307550;22;20176;-72
2024/03/31 04:02:24;;;;;;;22.75;17.73;;;9.70;99.90;;;;;;6309938;22;20188;-72
2024/03/31 04:04:50;;;;;;;21.67;16.15;;;9.70;99.90;;;;;;6306620;22;20192;-72
2024/03/31 04:07:17;;;;;;;26.33;17.80;;;9.70;99.90;;;;;;6305546;22;20183;-72
2024/03/31 04:09:43;;;;;;;24.40;18.33;;;9.70;99.90;;;;;;6306676;22;20414;-72
2024/03/31 04:12:10;;;;;;;24.53;16.50;;;9.60;99.90;;;;;;6306340;22;20191;-71
2024/03/31 04:14:35;;;;;;;25.88;16.90;;;9.60;99.90;;;;;;6306255;22;20200;-71
2024/03/31 04:17:04;;;;;;;21.53;15.00;;;9.70;99.90;;;;;;6307534;22;20194;-72
2024/03/31 04:19:29;;;;;;;18.73;14.27;;;9.70;99.90;;;;;;6306664;22;20180;-72
2024/03/31 04:21:56;;;;;;;21.70;15.13;;;9.70;99.90;;;;;;6306430;22;20186;-72
2024/03/31 04:24:22;;;;;;;20.88;14.82;;;9.70;99.90;;;;;;6306289;22;20192;-71
2024/03/31 04:26:49;;;;;;;22.77;15.97;;;9.70;99.90;;;;;;6306282;22;20258;-72
2024/03/31 04:29:14;;;;;;;19.95;14.95;;;9.70;99.90;;;;;;6306842;22;20179;-72
2024/03/31 04:31:53;;;;;;;19.33;15.40;;;9.60;99.90;;;;;;6306563;22;20685;-72
2024/03/31 04:34:20;;;;;;;18.98;14.50;;;9.60;99.90;;;;;;6307566;22;20203;-72
2024/03/31 04:36:49;;;;;;;18.65;14.00;;;9.60;99.90;;;;;;6306757;22;20182;-72
2024/03/31 04:39:15;;;;;;;18.92;14.02;;;9.60;99.90;;;;;;6306892;22;20183;-72
2024/03/31 04:41:41;;;;;;;20.43;15.73;;;9.60;99.90;;;;;;6307014;22;20172;-72
2024/03/31 04:44:07;;;;;;;18.83;13.70;;;9.60;99.90;;;;;;6306108;22;20430;-72
2024/03/31 04:46:34;;;;;;;18.67;13.30;;;9.50;99.90;;;;;;6305929;22;20529;-72
2024/03/31 04:48:59;;;;;;;24.77;14.15;;;9.50;99.90;;;;;;6306071;22;20195;-72
2024/03/31 04:51:27;;;;;;;20.40;14.60;;;9.50;99.90;;;;;;6305833;22;20172;-72
2024/03/31 04:53:53;;;;;;;22.05;12.95;;;9.50;99.90;;;;;;6307463;22;20211;-73
2024/03/31 04:56:20;;;;;;;22.30;13.07;;;9.50;99.90;;;;;;6307260;22;20172;-72
2024/03/31 04:58:46;;;;;;;18.75;14.07;;;9.40;99.90;;;;;;6310150;22;20242;-72
2024/03/31 05:01:13;;;;;;;30.40;14.68;;;9.40;99.90;;;;;;6308703;22;20183;-73
2024/03/31 05:03:39;;;;;;;19.42;13.05;;;9.40;99.90;;;;;;6311172;22;20199;-72
2024/03/31 05:06:05;;;;;;;29.03;14.60;;;9.30;99.90;;;;;;6309514;22;20190;-72
2024/03/31 05:08:33;;;;;;;16.02;11.23;;;9.30;99.90;;;;;;6310189;22;20414;-73
2024/03/31 05:11:01;;;;;;;20.88;12.35;;;9.30;99.90;;;;;;6307605;22;20187;-72
2024/03/31 05:13:27;;;;;;;21.85;12.63;;;9.20;99.90;;;;;;6307300;22;20176;-72
2024/03/31 05:16:04;;;;;;;20.35;12.23;;;9.20;99.90;;;;;;6304830;22;20627;-73
2024/03/31 05:18:30;;;;;;;18.35;11.93;;;9.10;99.90;;;;;;6306514;22;20221;-73
2024/03/31 05:20:58;;;;;;;18.77;12.00;;;9.10;99.90;;;;;;6306134;22;20214;-72
2024/03/31 05:23:24;;;;;;;22.15;11.43;;;9.10;99.90;;;;;;6305688;22;20180;-72
2024/03/31 05:25:52;;;;;;;28.63;13.23;;;9.10;99.90;;;;;;6315222;22;20198;-72
2024/03/31 05:28:19;;;;;;;21.92;12.88;;;9.10;99.90;;;;;;6305832;22;20830;-72
2024/03/31 05:30:45;;;;;;;17.30;10.65;;;9.10;99.90;;;;;;6305178;22;20241;-73
2024/03/31 05:33:12;;;;;;;21.20;13.40;;;9.10;99.90;;;;;;6304872;22;20512;-72
2024/03/31 05:35:38;;;;;;;22.38;12.57;;;9.10;99.90;;;;;;6304593;22;20511;-72
2024/03/31 05:38:04;;;;;;;19.35;14.02;;;9.10;99.90;;;;;;6304888;22;20176;-73
2024/03/31 05:40:31;;;;;;;21.23;12.27;;;9.10;99.90;;;;;;6305749;22;20500;-72
2024/03/31 05:42:59;;;;;;;22.65;12.85;;;9.00;99.90;;;;;;6304820;22;20216;-71
2024/03/31 05:45:26;;;;;;;22.05;13.10;;;9.00;99.90;;;;;;6304542;22;20203;-71
2024/03/31 05:47:51;;;;;;;19.73;11.98;;;9.00;99.90;;;;;;6304742;22;20584;-71
2024/03/31 05:50:18;;;;;;;20.80;11.90;;;9.00;99.90;;;;;;6305204;22;20214;-71
2024/03/31 05:52:44;;;;;;;21.95;12.70;;;9.00;99.90;;;;;;6304940;22;20180;-71
2024/03/31 05:55:10;;;;;;;25.10;13.50;;;9.00;99.90;;;;;;6304677;22;20200;-70
2024/03/31 05:57:36;;;;;;;17.65;11.32;;;9.00;99.90;;;;;;6305086;22;20180;-71
2024/03/31 06:00:05;;;;;;;27.97;12.03;;;9.10;99.90;;;;;;6305448;22;20178;-70
2024/03/31 06:02:31;;;;;;;20.92;12.90;;;9.10;99.90;;;;;;6305014;22;20781;-71
2024/03/31 06:04:58;;;;;;;27.07;15.63;;;9.10;99.90;;;;;;6305074;22;20271;-71
2024/03/31 06:07:24;;;;;;;25.80;12.88;;;9.10;99.90;;;;;;6305046;22;20259;-72
2024/03/31 06:09:51;;;;;;;18.43;11.17;;;9.10;99.90;;;;;;6305557;22;20210;-71
2024/03/31 06:12:16;;;;;;;17.05;11.95;;;9.10;99.90;;;;;;6305292;22;20180;-71
2024/03/31 06:14:43;;;;;;;19.57;11.70;;;9.10;99.90;;;;;;6304612;22;20200;-71
2024/03/31 06:17:10;;;;;;;20.70;10.32;;;9.20;99.90;;;;;;6305477;22;20184;-71
2024/03/31 06:19:37;;;;;;;21.75;10.63;;;9.20;99.90;;;;;;6305162;22;20267;-72
2024/03/31 06:22:03;;;;;;;15.25;9.85;;;9.10;99.90;;;;;;6305600;22;20484;-71
2024/03/31 06:24:30;;;;;;;23.50;13.15;;;9.20;99.90;;;;;;6305578;22;20192;-73
2024/03/31 06:26:57;;;;;;;19.02;11.15;;;9.20;99.90;;;;;;6305917;22;20699;-72
2024/03/31 06:29:23;;;;;;;26.10;10.05;;;9.20;99.90;;;;;;6304866;22;20229;-71
2024/03/31 06:31:49;;;;;;;21.92;11.02;;;9.20;99.90;;;;;;6305902;22;20179;-72
2024/03/31 06:34:17;;;;;;;23.13;12.10;;;9.20;99.90;;;;;;6305204;22;20206;-72
2024/03/31 06:36:45;;;;;;;19.00;10.98;;;9.20;99.90;;;;;;6310719;22;20414;-71
2024/03/31 06:39:13;;;;;;;17.60;11.52;;;9.30;99.90;;;;;;6320522;22;20205;-72
2024/03/31 06:41:38;;;;;;;15.55;8.73;;;9.30;99.90;;;;;;6310274;22;20644;-72
2024/03/31 06:44:05;;;;;;;26.43;11.63;;;9.40;99.90;;;;;;6311263;22;20267;-72
2024/03/31 06:46:31;;;;;;;18.58;9.40;;;9.40;99.90;;;;;;6310244;22;20176;-72
2024/03/31 06:48:58;;;;;;;17.40;9.53;;;9.40;99.90;;;;;;6308818;22;20194;-71
2024/03/31 06:51:25;;;;;;;14.77;9.50;;;9.40;99.90;;;;;;6307928;22;20750;-71
2024/03/31 06:53:52;;;;;;;23.02;11.52;;;9.50;99.90;;;;;;6307873;22;20584;-71
2024/03/31 06:56:17;;;;;;;21.25;10.70;;;9.50;99.90;;;;;;6308018;22;20180;-71
2024/03/31 06:58:44;;;;;;;23.10;11.83;;;9.50;99.90;;;;;;6307474;22;20289;-71
2024/03/31 07:01:10;;;;;;;22.98;11.50;;;9.50;99.90;;;;;;6307284;22;20464;-71
2024/03/31 07:03:37;;;;;;;18.20;9.83;;;9.50;99.90;;;;;;6305108;22;20274;-72
2024/03/31 07:06:03;;;;;;;18.20;10.23;;;9.50;99.90;;;;;;6304965;22;20176;-72
2024/03/31 07:08:31;;;;;;;19.35;10.80;;;9.50;99.90;;;;;;6304300;22;20182;-72
2024/03/31 07:10:58;;;;;;;24.17;13.10;;;9.60;99.90;;;;;;6304897;22;20225;-71
2024/03/31 07:13:24;;;;;;;15.80;9.00;;;9.50;99.90;;;;;;6304343;22;20183;-72
2024/03/31 07:15:50;;;;;;;21.58;10.75;;;9.60;99.90;;;;;;6306630;22;20200;-72
2024/03/31 07:18:17;;;;;;;18.90;10.53;;;9.60;99.90;;;;;;6306575;22;20202;-72
2024/03/31 07:20:42;;;;;;;17.75;10.88;;;9.50;99.90;;;;;;6306485;22;20509;-72
2024/03/31 07:23:09;;;;;;;18.50;10.03;;;9.50;99.90;;;;;;6306743;22;20188;-71
2024/03/31 07:25:36;;;;;;;17.55;11.05;;;9.40;99.90;;;;;;6306492;22;20485;-71
2024/03/31 07:28:03;;;;;;;15.52;9.30;;;9.40;99.90;;;;;;6306313;22;20181;-71
2024/03/31 07:30:29;;;;;;;16.58;10.63;;;9.50;99.90;;;;;;6306995;22;20211;-71
2024/03/31 07:32:56;;;;;;;21.10;13.90;;;9.50;99.90;;;;;;6307412;22;20176;-70
2024/03/31 07:35:22;;;;;;;23.23;12.23;;;9.50;99.90;;;;;;6306434;22;20683;-71
2024/03/31 07:37:48;;;;;;;25.33;10.83;;;9.50;99.90;;;;;;6306735;22;20262;-72
2024/03/31 07:40:15;;;;;;;20.25;11.35;;;9.60;99.90;;;;;;6306687;22;20263;-71
2024/03/31 07:42:44;;;;;;;15.10;9.07;;;9.60;99.90;;;;;;6306780;22;20530;-72
2024/03/31 07:45:10;;;;;;;14.07;10.07;;;9.70;99.90;;;;;;6306209;22;20671;-72
2024/03/31 07:47:36;;;;;;;21.77;13.40;;;9.70;99.90;;;;;;6306096;22;20182;-71
2024/03/31 07:50:02;;;;;;;20.13;11.90;;;9.70;99.90;;;;;;6306256;22;20223;-71
2024/03/31 07:52:29;;;;;;;23.25;11.30;;;9.80;99.90;;;;;;6306543;22;20538;-71
2024/03/31 07:54:55;;;;;;;19.15;10.77;;;9.80;99.90;;;;;;6306154;22;20200;-71
2024/03/31 07:57:21;;;;;;;23.20;11.00;;;9.80;99.90;;;;;;6306221;22;20650;-71
2024/03/31 07:59:49;;;;;;;14.18;8.68;;;9.90;99.90;;;;;;6305726;22;20179;-71
2024/03/31 08:02:15;;;;;;;19.75;11.02;;;9.90;99.90;;;;;;6306306;22;20214;-71
2024/03/31 08:04:41;;;;;;;15.30;8.98;;;9.90;99.90;;;;;;6305873;22;20192;-71
2024/03/31 08:07:08;;;;;;;18.07;10.70;;;9.90;99.90;;;;;;6316743;22;20509;-71
2024/03/31 08:09:34;;;;;;;18.17;11.27;;;9.90;99.90;;;;;;6306799;22;20176;-71
2024/03/31 08:12:00;;;;;;;19.00;11.07;;;9.90;99.90;;;;;;6306785;22;20175;-71
2024/03/31 08:14:26;;;;;;;23.65;12.30;;;9.90;99.90;;;;;;6306773;22;20465;-71
2024/03/31 08:16:54;;;;;;;22.27;12.30;;;10.00;99.90;;;;;;6307088;22;20176;-71
2024/03/31 08:19:20;;;;;;;19.15;9.93;;;9.90;99.90;;;;;;6307684;22;20179;-71
2024/03/31 08:21:46;;;;;;;23.40;12.03;;;10.00;99.90;;;;;;6308110;22;20226;-71
2024/03/31 08:24:12;;;;;;;35.05;11.10;;;10.10;99.90;;;;;;6305896;22;20574;-71
2024/03/31 08:26:39;;;;;;;11.93;8.63;;;10.10;99.90;;;;;;6305741;22;20182;-71
2024/03/31 08:29:05;;;;;;;16.35;11.05;;;10.20;99.90;;;;;;6305889;22;20179;-71
2024/03/31 08:31:31;;;;;;;16.30;9.27;;;10.20;99.90;;;;;;6306084;22;20172;-71
2024/03/31 08:33:59;;;;;;;14.05;8.93;;;10.20;99.90;;;;;;6306059;22;20212;-71
2024/03/31 08:36:26;;;;;;;15.23;9.33;;;10.30;99.90;;;;;;6305286;22;20180;-71
2024/03/31 08:38:52;;;;;;;17.70;9.90;;;10.30;99.90;;;;;;6305893;22;20426;-71
2024/03/31 08:41:30;;;;;;;18.70;10.40;;;10.30;99.90;;;;;;6306783;22;20731;-71
2024/03/31 08:43:59;;;;;;;16.93;9.27;;;10.30;99.90;;;;;;6306009;22;20200;-71
2024/03/31 08:46:26;;;;;;;17.73;9.77;;;10.40;99.90;;;;;;6305014;22;20508;-71
2024/03/31 08:48:52;;;;;;;13.30;9.50;;;10.30;99.90;;;;;;6306231;22;20498;-72
2024/03/31 08:51:20;;;;;;;14.93;8.70;;;10.40;99.90;;;;;;6317737;22;20920;-72
2024/03/31 08:53:47;;;;;;;14.00;10.63;;;10.40;99.90;;;;;;6306398;22;20204;-72
2024/03/31 08:56:13;;;;;;;12.53;7.90;;;10.40;99.90;;;;;;6315937;22;20446;-71
2024/03/31 08:58:41;;;;;;;15.02;8.73;;;10.40;99.90;;;;;;6308840;22;20418;-71
2024/03/31 09:01:12;;;;;;;14.90;10.00;;;10.40;99.90;;;;;;6309376;22;20202;-71
2024/03/31 09:03:38;;;;;;;14.50;9.00;;;10.40;99.90;;;;;;6309028;22;20437;-71
2024/03/31 09:06:05;;;;;;;23.10;13.33;;;10.50;99.90;;;;;;6308628;22;20513;-71
2024/03/31 09:08:32;;;;;;;17.67;12.23;;;10.40;99.90;;;;;;6309992;22;20427;-71
2024/03/31 09:10:59;;;;;;;12.53;7.77;;;10.50;99.90;;;;;;6310627;22;20426;-71
2024/03/31 09:13:25;;;;;;;9.73;7.73;;;10.50;99.90;;;;;;6310527;22;20703;-72
2024/03/31 09:15:51;;;;;;;15.20;8.20;;;10.50;99.90;;;;;;6310457;22;20529;-72
2024/03/31 09:18:17;;;;;;;11.20;8.67;;;10.50;99.90;;;;;;6310102;22;20180;-71
2024/03/31 09:20:44;;;;;;;14.00;9.10;;;10.50;99.90;;;;;;6310320;22;20410;-72
2024/03/31 09:23:09;;;;;;;14.67;9.13;;;10.50;99.90;;;;;;6308879;22;20186;-71
2024/03/31 09:25:38;;;;;;;15.57;8.80;;;10.50;99.90;;;;;;6309551;22;20486;-72
2024/03/31 09:28:04;;;;;;;14.43;8.77;;;10.50;99.90;;;;;;6305708;22;20232;-71
2024/03/31 09:30:32;;;;;;;14.17;8.50;;;10.50;99.90;;;;;;6306315;22;20763;-71
2024/03/31 09:32:58;;;;;;;15.73;8.57;;;10.60;99.90;;;;;;6306486;22;20414;-71
2024/03/31 09:35:25;;;;;;;13.00;8.57;;;10.60;99.90;;;;;;6305635;22;20203;-71
2024/03/31 09:37:51;;;;;;;12.93;8.63;;;10.60;99.90;;;;;;6305339;22;20414;-71
2024/03/31 09:40:18;;;;;;;15.30;9.77;;;10.60;99.90;;;;;;6306303;22;20425;-71
2024/03/31 09:42:46;;;;;;;17.77;8.97;;;10.60;99.90;;;;;;6306314;22;20433;-72
2024/03/31 09:45:13;;;;;;;15.07;8.90;;;10.60;99.90;;;;;;6306179;22;20443;-71
2024/03/31 09:47:44;;;;;;;13.90;8.60;;;10.60;99.90;;;;;;6305917;22;20414;-71
2024/03/31 09:50:20;;;;;;;11.60;8.50;;;10.70;99.90;;;;;;6305860;22;20430;-71
2024/03/31 09:52:50;;;;;;;15.80;8.47;;;10.60;99.90;;;;;;6306016;22;20863;-71
2024/03/31 09:55:23;;;;;;;15.60;8.87;;;10.70;99.90;;;;;;6305562;22;20447;-71
2024/03/31 09:57:52;;;;;;;15.43;10.17;;;10.80;99.90;;;;;;6305783;22;20399;-70
2024/03/31 10:00:19;;;;;;;12.23;8.73;;;10.80;99.90;;;;;;6306332;22;20492;-70
2024/03/31 10:02:52;;;;;;;15.40;8.50;;;10.80;99.90;;;;;;6305350;22;20437;-71
2024/03/31 10:05:26;;;;;;;10.73;7.93;;;10.80;99.90;;;;;;6304515;22;21007;-71
2024/03/31 10:07:54;;;;;;;17.90;10.67;;;10.80;99.90;;;;;;6304945;22;20402;-71
2024/03/31 10:10:22;;;;;;;15.80;9.00;;;10.90;99.90;;;;;;6305455;22;20450;-71
2024/03/31 10:12:51;;;;;;;18.07;9.93;;;10.90;99.90;;;;;;6305488;22;20414;-71
2024/03/31 10:15:20;;;;;;;13.00;8.93;;;11.00;99.90;;;;;;6305979;22;20533;-71
2024/03/31 10:17:49;;;;;;;15.73;9.07;;;11.00;99.90;;;;;;6306884;22;20772;-71
2024/03/31 10:20:19;;;;;;;12.17;9.70;;;11.10;99.90;;;;;;6307097;22;21009;-71
2024/03/31 10:22:45;;;;;;;14.37;9.17;;;11.10;99.90;;;;;;6307698;22;20422;-71
2024/03/31 10:25:12;;;;;;;13.87;9.73;;;11.10;99.90;;;;;;6306658;22;20487;-72
2024/03/31 10:27:41;;;;;;;23.47;10.13;;;11.20;99.90;;;;;;6305162;22;20445;-72
2024/03/31 10:30:10;;;;;;;10.63;8.30;;;11.20;99.90;;;;;;6306458;22;20940;-72
2024/03/31 10:32:36;;;;;;;15.67;8.60;;;11.30;99.90;;;;;;6306980;22;20751;-71
2024/03/31 10:35:05;;;;;;;15.97;9.83;;;11.30;99.90;;;;;;6307536;22;20801;-72
2024/03/31 10:37:32;;;;;;;12.83;7.77;;;11.40;99.90;;;;;;6307364;22;20426;-72
2024/03/31 10:39:59;;;;;;;15.57;9.30;;;11.50;99.90;;;;;;6307538;22;20419;-72
2024/03/31 10:42:25;;;;;;;24.87;9.67;;;11.60;99.90;;;;;;6307697;22;20421;-72
2024/03/31 10:44:53;;;;;;;13.10;9.47;;;11.80;99.90;;;;;;6307993;22;20497;-72
2024/03/31 10:47:21;;;;;;;14.80;10.70;;;11.90;99.90;;;;;;6308329;22;20423;-72
2024/03/31 10:49:47;;;;;;;14.23;9.50;;;12.10;99.90;;;;;;6307403;22;20433;-71
2024/03/31 10:52:14;;;;;;;12.83;9.63;;;12.30;99.90;;;;;;6307923;22;20414;-72
2024/03/31 10:54:41;;;;;;;15.13;9.50;;;12.50;99.90;;;;;;6306790;22;20446;-72
2024/03/31 10:57:10;;;;;;;12.97;10.40;;;12.60;99.90;;;;;;6307425;22;20525;-72
2024/03/31 10:59:39;;;;;;;17.17;10.10;;;12.60;99.90;;;;;;6307300;22;20418;-71
2024/03/31 11:02:14;;;;;;;13.70;9.17;;;12.70;99.90;;;;;;6307858;22;20480;-72
2024/03/31 11:04:43;;;;;;;11.63;9.00;;;12.70;99.90;;;;;;6306988;22;20507;-72
2024/03/31 11:07:12;;;;;;;15.60;10.37;;;12.80;99.90;;;;;;6306424;22;20437;-73
2024/03/31 11:09:39;;;;;;;13.47;8.27;;;12.90;99.90;;;;;;6305248;22;20418;-72
2024/03/31 11:12:06;;;;;;;14.90;9.43;;;13.00;99.90;;;;;;6305547;22;20421;-72
2024/03/31 11:14:34;;;;;;;13.50;8.87;;;12.90;99.90;;;;;;6305145;22;20461;-71
2024/03/31 11:17:00;;;;;;;17.37;9.83;;;12.90;99.90;;;;;;6305371;22;20419;-73
2024/03/31 11:19:27;;;;;;;13.07;9.50;;;12.90;99.90;;;;;;6306205;22;20422;-72
2024/03/31 11:21:57;;;;;;;14.97;9.30;;;12.90;99.90;;;;;;6305846;22;20867;-71
2024/03/31 11:24:25;;;;;;;14.30;9.57;;;12.90;99.90;;;;;;6306737;22;20442;-72
2024/03/31 11:26:51;;;;;;;18.80;11.10;;;12.90;99.90;;;;;;6306550;22;20701;-72
2024/03/31 11:29:18;;;;;;;15.60;8.83;;;13.00;99.90;;;;;;6307113;22;20418;-72
2024/03/31 11:31:45;;;;;;;15.33;10.43;;;13.10;99.90;;;;;;6306519;22;20414;-73
2024/03/31 11:34:12;;;;;;;14.60;10.57;;;13.20;99.90;;;;;;6304423;22;20450;-72
2024/03/31 11:36:37;;;;;;;20.00;11.97;;;13.30;99.90;;;;;;6315440;22;20533;-72
2024/03/31 11:39:07;;;;;;;15.53;8.70;;;13.40;99.90;;;;;;6305594;22;20418;-72
2024/03/31 11:41:33;;;;;;;11.83;8.30;;;13.40;99.90;;;;;;6305482;22;20258;-72
2024/03/31 11:44:00;;;;;;;12.10;7.83;;;13.50;99.90;;;;;;6304459;22;21001;-72
2024/03/31 11:46:26;;;;;;;14.13;8.10;;;13.50;99.90;;;;;;6304527;22;20421;-72
2024/03/31 11:48:52;;;;;;;11.00;8.60;;;13.60;99.90;;;;;;6314599;22;20899;-72
2024/03/31 11:51:19;;;;;;;12.03;8.47;;;13.70;99.90;;;;;;6305411;22;20414;-72
2024/03/31 11:53:45;;;;;;;12.00;7.70;;;13.70;99.90;;;;;;6304462;22;20438;-71
2024/03/31 11:56:12;;;;;;;11.83;8.50;;;13.80;99.90;;;;;;6303859;22;20956;-71
2024/03/31 11:58:39;;;;;;;13.87;8.07;;;13.80;99.90;;;;;;6304845;22;20422;-71
2024/03/31 12:01:07;;;;;;;12.00;7.50;;;14.00;99.90;;;;;;6305752;22;20415;-70
2024/03/31 12:03:34;;;;;;;12.73;7.73;;;14.00;99.90;;;;;;6306632;22;20460;-72
2024/03/31 12:06:01;;;;;;;10.87;7.10;;;14.00;99.90;;;;;;6305781;22;20421;-71
2024/03/31 12:08:28;;;;;;;13.37;8.60;;;14.00;99.90;;;;;;6305797;22;20483;-71
2024/03/31 12:10:54;;;;;;;10.70;7.87;;;13.90;99.90;;;;;;6306099;22;20505;-72
2024/03/31 12:13:23;;;;;;;10.37;7.37;;;13.80;99.90;;;;;;6306054;22;20446;-72
2024/03/31 12:15:49;;;;;;;12.13;6.40;;;13.90;99.90;;;;;;6305760;22;20441;-71
2024/03/31 12:18:16;;;;;;;13.43;8.53;;;13.80;99.90;;;;;;6305800;22;20429;-72
2024/03/31 12:20:42;;;;;;;15.10;10.03;;;13.60;99.90;;;;;;6306223;22;20659;-71
2024/03/31 12:23:09;;;;;;;9.80;7.50;;;13.70;99.90;;;;;;6306144;22;20414;-72
2024/03/31 12:25:39;;;;;;;12.70;8.70;;;13.80;99.90;;;;;;6306330;22;20196;-71
2024/03/31 12:28:06;;;;;;;14.40;8.43;;;13.80;99.90;;;;;;6306104;22;20414;-72
2024/03/31 12:30:45;;;;;;;12.20;9.10;;;13.80;99.90;;;;;;6306368;22;20487;-72